Time;durP1;ratioP1;P1;durP2;ratioP2;P2;SDS_P1;SDS_P2;PMS_P1;PMS_P2;Temp;Humidity;BMP_temperature;BMP_pressure;BME280_temperature;BME280_humidity;BME280_pressure;Samples;Min_cycle;Max_cycle;Signal;HPM_P1;HPM_P2
2022/08/29 00:00:36;;;;;;;28.97;25.53;;;24.40;76.90;;;;;;5073028;28;20279;-62
2022/08/29 00:03:05;;;;;;;27.50;24.50;;;24.40;76.90;;;;;;5073534;28;20025;-62
2022/08/29 00:05:33;;;;;;;31.45;24.58;;;24.40;76.70;;;;;;5073175;28;20524;-62
2022/08/29 00:08:02;;;;;;;30.77;25.27;;;;;;;;;;5054907;28;20379;-62
2022/08/29 00:10:29;;;;;;;30.88;25.45;;;;;;;;;;5072737;28;20031;-62
2022/08/29 00:12:56;;;;;;;31.30;25.67;;;;;;;;;;5073170;28;20036;-62
2022/08/29 00:15:22;;;;;;;26.20;23.20;;;;;;;;;;5072774;28;20074;-62
2022/08/29 00:17:48;;;;;;;;;;;;;;;;;;5073805;28;20849;-62
2022/08/29 00:20:18;;;;;;;28.13;23.02;;;;;;;;;;5055472;28;19904;-63
2022/08/29 00:22:44;;;;;;;27.08;23.60;;;;;;;;;;5073837;28;20107;-62
2022/08/29 00:25:11;;;;;;;23.87;21.17;;;;;;;;;;5076489;28;20028;-62
2022/08/29 00:27:37;;;;;;;;;;;;;;;;;;5073577;28;20334;-62
2022/08/29 00:30:05;;;;;;;22.70;20.33;;;24.50;76.60;;;;;;5073034;28;20370;-62
2022/08/29 00:32:35;;;;;;;23.02;20.02;;;24.20;75.40;;;;;;5054285;28;20025;-62
2022/08/29 00:35:12;;;;;;;22.15;19.17;;;24.10;75.30;;;;;;5072424;28;20040;-62
2022/08/29 00:37:37;;;;;;;21.13;18.73;;;24.20;75.00;;;;;;5072956;28;20017;-62
2022/08/29 00:40:06;;;;;;;20.80;17.97;;;24.10;74.70;;;;;;5072984;28;20031;-62
2022/08/29 00:42:34;;;;;;;20.65;17.63;;;;;;;;;;5072191;28;20394;-62
2022/08/29 00:45:01;;;;;;;21.23;16.77;;;24.10;74.50;;;;;;5054614;28;20419;-62
2022/08/29 00:47:31;;;;;;;19.73;14.98;;;24.10;74.20;;;;;;5072176;28;20029;-62
2022/08/29 00:49:58;;;;;;;17.58;14.55;;;;;;;;;;5084266;28;20046;-62
2022/08/29 00:52:33;;;;;;;16.33;14.13;;;;;;;;;;5092660;28;20027;-62
2022/08/29 00:55:00;;;;;;;16.08;13.48;;;;;;;;;;5071790;28;20021;-62
2022/08/29 00:57:28;;;;;;;15.63;11.18;;;;;;;;;;5072203;28;20070;-62
2022/08/29 00:59:54;;;;;;;12.48;10.80;;;;;;;;;;5072447;28;20021;-62
2022/08/29 01:02:20;;;;;;;11.93;9.73;;;;;;;;;;5071873;28;20029;-62
2022/08/29 01:04:46;;;;;;;10.15;9.13;;;;;;;;;;5072178;28;20028;-62
2022/08/29 01:07:13;;;;;;;11.15;9.07;;;;;;;;;;5072011;28;20020;-63
2022/08/29 01:09:40;;;;;;;10.80;8.10;;;;;;;;;;5054080;28;20037;-63
2022/08/29 01:12:16;;;;;;;12.85;8.60;;;24.10;73.90;;;;;;5071824;28;20074;-62
2022/08/29 01:14:52;;;;;;;7.25;6.53;;;23.80;70.90;;;;;;5071990;28;20096;-62
2022/08/29 01:17:29;;;;;;;10.50;6.90;;;23.70;70.50;;;;;;5072210;28;20020;-62
2022/08/29 01:19:59;;;;;;;6.93;5.82;;;23.50;86.50;;;;;;5071635;28;20028;-62
2022/08/29 01:22:43;;;;;;;8.55;6.10;;;23.50;71.40;;;;;;5055837;28;20070;-62
2022/08/29 01:25:11;;;;;;;11.23;5.65;;;;;;;;;;5071362;28;20032;-62
2022/08/29 01:27:39;;;;;;;7.45;5.47;;;;;;;;;;5071771;28;20039;-65
2022/08/29 01:30:06;;;;;;;9.77;5.65;;;;;;;;;;5053636;28;20040;-62
2022/08/29 01:32:32;;;;;;;7.45;4.40;;;;;;;;;;5071685;28;20082;-62
2022/08/29 01:34:58;;;;;;;4.83;4.23;;;;;;;;;;5071296;28;20032;-62
2022/08/29 01:37:27;;;;;;;7.05;4.68;;;;;;;;;;5071895;28;20749;-62
2022/08/29 01:39:53;;;;;;;7.30;4.78;;;;;;;;;;5071565;28;20027;-62
2022/08/29 01:42:21;;;;;;;6.60;5.50;;;;;;;;;;5053512;28;20056;-62
2022/08/29 01:44:58;;;;;;;6.50;4.55;;;;;;;;;;5071431;28;20032;-62
2022/08/29 01:47:26;;;;;;;9.50;5.18;;;23.60;71.50;;;;;;5071842;28;20024;-62
2022/08/29 01:49:52;;;;;;;5.85;4.50;;;23.60;69.50;;;;;;5071185;28;20039;-62
2022/08/29 01:52:19;;;;;;;5.30;4.28;;;;;;;;;;5053184;28;20028;-62
2022/08/29 01:54:45;;;;;;;6.05;4.63;;;;;;;;;;5071343;28;20039;-62
2022/08/29 01:57:13;;;;;;;5.65;4.50;;;;;;;;;;5071723;28;20479;-62
2022/08/29 01:59:39;;;;;;;7.25;4.53;;;;;;;;;;5071643;28;20032;-62
2022/08/29 02:02:09;;;;;;;6.50;4.68;;;;;;;;;;5070919;28;20046;-62
2022/08/29 02:04:35;;;;;;;4.85;4.35;;;;;;;;;;5071127;28;20024;-62
2022/08/29 02:07:01;;;;;;;4.73;4.07;;;;;;;;;;5052913;28;20024;-62
2022/08/29 02:09:28;;;;;;;9.68;5.20;;;;;;;;;;5071074;28;20482;-62
2022/08/29 02:11:54;;;;;;;;;;;;;;;;;;5071356;28;20029;-62
2022/08/29 02:14:22;;;;;;;7.57;5.22;;;;;;;;;;5071234;28;19911;-62
2022/08/29 02:16:48;;;;;;;5.60;4.63;;;;;;;;;;5052893;28;20433;-62
2022/08/29 02:19:14;;;;;;;6.03;4.03;;;;;;;;;;5071130;28;20086;-62
2022/08/29 02:21:40;;;;;;;7.65;5.05;;;;;;;;;;5070830;28;20036;-63
2022/08/29 02:24:07;;;;;;;9.07;4.57;;;;;;;;;;5053173;28;20075;-63
2022/08/29 02:26:33;;;;;;;8.02;4.95;;;;;;;;;;5052717;28;20115;-63
2022/08/29 02:29:00;;;;;;;5.50;5.00;;;;;;;;;;5070758;28;20024;-63
2022/08/29 02:31:26;;;;;;;;;;;;;;;;;;5070591;28;20311;-62
2022/08/29 02:33:53;;;;;;;6.35;5.20;;;;;;;;;;5070690;28;19916;-63
2022/08/29 02:36:20;;;;;;;7.07;5.30;;;;;;;;;;5070832;28;20035;-62
2022/08/29 02:38:46;;;;;;;5.90;5.30;;;;;;;;;;5053156;28;20029;-62
2022/08/29 02:41:13;;;;;;;6.03;4.80;;;;;;;;;;5070862;28;20111;-62
2022/08/29 02:43:39;;;;;;;;;;;;;;;;;;5071450;28;20059;-62
2022/08/29 02:46:05;;;;;;;7.05;5.47;;;;;;;;;;5070984;28;20299;-62
2022/08/29 02:48:32;;;;;;;5.93;4.82;;;;;;;;;;5070955;28;20486;-62
2022/08/29 02:50:58;;;;;;;8.73;5.43;;;;;;;;;;5069599;28;20520;-62
2022/08/29 02:53:25;;;;;;;7.53;5.85;;;;;;;;;;5052516;28;20024;-63
2022/08/29 02:55:52;;;;;;;12.45;6.88;;;;;;;;;;5070815;28;20479;-62
2022/08/29 02:58:19;;;;;;;7.40;6.68;;;;;;;;;;5053294;28;20027;-62
2022/08/29 03:00:45;;;;;;;8.18;6.53;;;;;;;;;;5070262;28;20020;-62
2022/08/29 03:03:11;;;;;;;9.40;6.80;;;;;;;;;;5070514;28;20033;-62
2022/08/29 03:05:37;;;;;;;11.55;7.20;;;;;;;;;;5070295;28;20123;-62
2022/08/29 03:08:05;;;;;;;10.77;7.63;;;;;;;;;;5070949;28;20071;-63
2022/08/29 03:10:32;;;;;;;9.30;7.32;;;;;;;;;;5070797;28;20017;-62
2022/08/29 03:12:58;;;;;;;9.30;7.47;;;;;;;;;;5074742;28;20044;-62
2022/08/29 03:15:24;;;;;;;14.37;8.23;;;23.50;80.00;;;;;;5090960;28;20062;-62
2022/08/29 03:17:50;;;;;;;14.07;8.35;;;;;;;;;;5089353;28;20246;-62
2022/08/29 03:20:18;;;;;;;11.73;7.82;;;;;;;;;;5074555;28;20103;-62
2022/08/29 03:22:45;;;;;;;8.90;7.55;;;;;;;;;;5073812;28;20486;-63
2022/08/29 03:25:11;;;;;;;10.90;7.80;;;;;;;;;;5074234;28;20028;-63
2022/08/29 03:27:38;;;;;;;12.52;8.23;;;;;;;;;;5056261;28;20051;-63
2022/08/29 03:30:05;;;;;;;12.23;7.78;;;;;;;;;;5055974;28;20035;-63
2022/08/29 03:32:32;;;;;;;11.23;7.45;;;;;;;;;;5073221;28;20025;-63
2022/08/29 03:34:58;;;;;;;9.07;7.85;;;;;;;;;;5074053;28;20028;-63
2022/08/29 03:37:26;;;;;;;10.88;7.90;;;;;;;;;;5055944;28;20028;-63
2022/08/29 03:39:52;;;;;;;11.32;8.15;;;;;;;;;;5072919;28;20497;-63
2022/08/29 03:42:18;;;;;;;11.65;7.55;;;;;;;;;;5073492;28;20016;-63
2022/08/29 03:44:44;;;;;;;12.70;8.43;;;;;;;;;;5073954;28;20035;-63
2022/08/29 03:47:10;;;;;;;9.57;7.90;;;;;;;;;;5073892;28;20032;-63
2022/08/29 03:49:36;;;;;;;10.63;8.27;;;;;;;;;;5074040;28;20051;-63
2022/08/29 03:52:03;;;;;;;11.50;8.00;;;;;;;;;;5073042;28;20290;-63
2022/08/29 03:54:29;;;;;;;;;;;;;;;;;;5073804;28;20112;-63
2022/08/29 03:56:55;;;;;;;14.77;8.32;;;;;;;;;;5073976;28;20400;-63
2022/08/29 03:59:22;;;;;;;9.93;7.47;;;;;;;;;;5073185;28;20047;-64
2022/08/29 04:01:48;;;;;;;12.40;8.18;;;;;;;;;;5067066;28;20293;-64
2022/08/29 04:05:05;;;;;;;11.23;8.68;;;;;;;;;;5039379;28;20117;-64
2022/08/29 04:07:01;;;;;;;11.85;8.00;;;;;;;;;;5053091;28;20121;-64
2022/08/29 04:09:28;;;;;;;14.32;8.48;;;;;;;;;;5052360;28;20029;-64
2022/08/29 04:11:54;;;;;;;;;;;;;;;;;;5053268;28;20479;-64
2022/08/29 04:14:20;;;;;;;12.45;8.57;;;;;;;;;;5052129;28;19951;-64
2022/08/29 04:16:50;;;;;;;10.83;7.37;;;;;;;;;;5053329;28;20383;-64
2022/08/29 04:19:16;;;;;;;11.43;8.90;;;;;;;;;;5052167;28;20271;-64
2022/08/29 04:21:44;;;;;;;10.82;8.48;;;;;;;;;;5051933;28;20029;-64
2022/08/29 04:24:10;;;;;;;9.88;8.48;;;;;;;;;;5053334;28;20051;-64
2022/08/29 04:26:36;;;;;;;10.32;8.68;;;;;;;;;;5051956;28;20029;-64
2022/08/29 04:29:02;;;;;;;11.37;8.27;;;;;;;;;;5051998;28;20028;-64
2022/08/29 04:31:28;;;;;;;11.50;9.50;;;;;;;;;;5052930;28;20286;-64
2022/08/29 04:33:55;;;;;;;15.80;9.48;;;;;;;;;;5053483;28;20021;-64
2022/08/29 04:36:21;;;;;;;12.73;8.60;;;;;;;;;;5052969;28;20571;-64
2022/08/29 04:38:47;;;;;;;10.48;8.82;;;;;;;;;;5053042;28;20052;-64
2022/08/29 04:41:13;;;;;;;17.10;10.73;;;;;;;;;;5052683;28;20031;-64
2022/08/29 04:43:40;;;;;;;12.98;9.13;;;;;;;;;;5051726;28;20082;-64
2022/08/29 04:46:07;;;;;;;11.45;10.25;;;22.60;85.80;;;;;;5052877;28;20403;-64
2022/08/29 04:48:32;;;;;;;14.93;11.40;;;22.40;76.60;;;;;;5035084;28;20025;-64
2022/08/29 04:51:00;;;;;;;12.65;10.85;;;;;;;;;;5052589;28;20036;-64
2022/08/29 04:53:26;;;;;;;16.65;11.73;;;;;;;;;;5052686;28;20051;-64
2022/08/29 04:56:07;;;;;;;18.55;11.10;;;;;;;;;;5052651;28;20047;-64
2022/08/29 04:58:34;;;;;;;14.32;11.57;;;;;;;;;;5052921;28;20376;-64
2022/08/29 05:01:01;;;;;;;12.73;11.25;;;;;;;;;;5052404;28;20032;-64
2022/08/29 05:03:27;;;;;;;;;;;22.50;76.40;;;;;;5053098;28;20029;-64
2022/08/29 05:06:00;;;;;;;14.25;11.13;;;;;;;;;;5052412;28;19905;-64
2022/08/29 05:08:27;;;;;;;13.90;11.23;;;;;;;;;;5051209;28;20501;-64
2022/08/29 05:10:53;;;;;;;11.57;10.13;;;;;;;;;;5052174;28;20074;-64
2022/08/29 05:13:19;;;;;;;20.77;12.10;;;;;;;;;;5052461;28;20027;-64
2022/08/29 05:15:46;;;;;;;19.52;11.13;;;;;;;;;;5052297;28;20350;-64
2022/08/29 05:18:12;;;;;;;14.18;12.55;;;;;;;;;;5052370;28;20161;-65
2022/08/29 05:20:40;;;;;;;21.63;12.55;;;;;;;;;;5051993;28;20029;-64
2022/08/29 05:23:06;;;;;;;15.65;12.07;;;;;;;;;;5052233;28;20358;-64
2022/08/29 05:25:32;;;;;;;19.10;12.00;;;;;;;;;;5052193;28;20025;-64
2022/08/29 05:27:58;;;;;;;20.13;12.83;;;;;;;;;;5052142;28;20033;-64
2022/08/29 05:30:24;;;;;;;19.70;12.97;;;;;;;;;;5052099;28;20545;-64
2022/08/29 05:32:51;;;;;;;15.50;12.77;;;;;;;;;;5051720;28;20025;-64
2022/08/29 05:35:17;;;;;;;18.00;13.77;;;;;;;;;;5051734;28;20275;-64
2022/08/29 05:37:43;;;;;;;21.85;13.02;;;22.40;77.20;;;;;;5051995;28;20494;-64
2022/08/29 05:40:09;;;;;;;20.57;13.07;;;22.90;76.10;;;;;;5052034;28;20107;-64
2022/08/29 05:42:35;;;;;;;21.10;12.43;;;22.90;76.70;;;;;;5051736;28;20021;-64
2022/08/29 05:45:03;;;;;;;20.73;13.30;;;22.70;77.80;;;;;;5051833;28;20402;-64
2022/08/29 05:47:30;;;;;;;14.38;12.65;;;22.60;78.90;;;;;;5051675;28;20035;-64
2022/08/29 05:49:56;;;;;;;16.30;13.68;;;22.50;80.40;;;;;;5051643;28;20083;-64
2022/08/29 05:52:22;;;;;;;16.57;12.97;;;22.50;79.70;;;;;;5051532;28;20116;-64
2022/08/29 05:54:48;;;;;;;16.58;13.68;;;;;;;;;;5033851;28;20291;-64
2022/08/29 05:57:15;;;;;;;18.13;14.75;;;;;;;;;;5051737;28;20013;-64
2022/08/29 05:59:42;;;;;;;;;;;;;;;;;;5052294;28;20023;-64
2022/08/29 06:02:09;;;;;;;15.82;14.13;;;;;;;;;;5051458;28;19916;-64
2022/08/29 06:04:34;;;;;;;;;;;;;;;;;;5051865;28;20032;-65
2022/08/29 06:07:01;;;;;;;18.13;14.55;;;;;;;;;;5050354;28;20230;-64
2022/08/29 06:09:27;;;;;;;18.92;14.95;;;;;;;;;;5051655;28;20362;-64
2022/08/29 06:11:53;;;;;;;15.48;13.18;;;;;;;;;;5051352;28;20096;-64
2022/08/29 06:14:20;;;;;;;16.23;13.63;;;;;;;;;;5051447;28;20022;-64
2022/08/29 06:16:46;;;;;;;16.98;13.05;;;;;;;;;;5051343;28;20088;-64
2022/08/29 06:19:12;;;;;;;15.00;12.70;;;;;;;;;;5051351;28;20609;-64
2022/08/29 06:21:38;;;;;;;15.98;12.02;;;;;;;;;;5051520;28;20033;-64
2022/08/29 06:24:04;;;;;;;13.95;11.40;;;;;;;;;;5050339;28;20391;-64
2022/08/29 06:26:31;;;;;;;15.95;12.15;;;;;;;;;;5051423;28;20029;-64
2022/08/29 06:28:57;;;;;;;14.17;11.27;;;;;;;;;;5051445;28;20059;-64
2022/08/29 06:31:27;;;;;;;14.75;11.40;;;;;;;;;;5049781;28;20160;-64
2022/08/29 06:33:55;;;;;;;13.35;11.45;;;;;;;;;;5051225;28;20070;-64
2022/08/29 06:36:21;;;;;;;13.88;11.30;;;;;;;;;;5051136;28;20025;-64
2022/08/29 06:38:48;;;;;;;12.05;10.75;;;;;;;;;;5051539;28;20029;-65
2022/08/29 06:41:15;;;;;;;13.00;11.25;;;;;;;;;;5051087;28;20021;-64
2022/08/29 06:43:42;;;;;;;10.63;9.52;;;;;;;;;;5051134;28;20025;-64
2022/08/29 06:46:09;;;;;;;12.73;10.05;;;;;;;;;;5051027;28;20021;-64
2022/08/29 06:48:35;;;;;;;12.25;10.27;;;;;;;;;;5049853;28;20029;-64
2022/08/29 06:51:02;;;;;;;12.87;10.27;;;;;;;;;;5050934;28;20067;-64
2022/08/29 06:53:28;;;;;;;13.88;9.68;;;;;;;;;;5052518;28;20255;-64
2022/08/29 06:55:55;;;;;;;10.02;8.60;;;;;;;;;;5054929;28;20464;-64
2022/08/29 06:58:21;;;;;;;11.98;8.55;;;;;;;;;;5053552;28;20032;-64
2022/08/29 07:00:48;;;;;;;11.18;8.27;;;;;;;;;;5054676;28;20033;-64
2022/08/29 07:03:14;;;;;;;10.55;8.00;;;;;;;;;;5055630;28;20033;-63
2022/08/29 07:05:40;;;;;;;18.50;7.83;;;;;;;;;;5054729;28;20091;-63
2022/08/29 07:08:06;;;;;;;10.57;8.43;;;;;;;;;;5054801;28;20320;-64
2022/08/29 07:10:32;;;;;;;8.95;7.90;;;;;;;;;;5054772;28;20407;-64
2022/08/29 07:12:58;;;;;;;10.48;7.80;;;;;;;;;;5053538;28;20028;-63
2022/08/29 07:15:24;;;;;;;9.68;8.43;;;;;;;;;;5053265;28;20021;-64
2022/08/29 07:17:50;;;;;;;8.77;7.87;;;;;;;;;;5054702;28;20074;-65
2022/08/29 07:20:17;;;;;;;13.07;7.43;;;;;;;;;;5054613;28;20302;-66
2022/08/29 07:22:47;;;;;;;10.15;7.72;;;;;;;;;;5054485;28;20522;-67
2022/08/29 07:25:13;;;;;;;8.65;7.75;;;;;;;;;;5054475;28;20024;-66
2022/08/29 07:27:39;;;;;;;9.70;8.67;;;;;;;;;;5054485;28;20025;-67
2022/08/29 07:30:05;;;;;;;9.37;7.20;;;;;;;;;;5054322;28;20757;-66
2022/08/29 07:32:32;;;;;;;8.18;7.03;;;;;;;;;;5054082;28;20279;-66
2022/08/29 07:34:58;;;;;;;12.07;7.85;;;;;;;;;;5054135;28;20039;-67
2022/08/29 07:37:24;;;;;;;12.98;9.38;;;;;;;;;;5054287;28;20379;-67
2022/08/29 07:39:50;;;;;;;8.48;7.07;;;;;;;;;;5054260;28;20071;-67
2022/08/29 07:42:16;;;;;;;11.57;7.47;;;;;;;;;;5053925;28;20029;-67
2022/08/29 07:44:42;;;;;;;12.02;7.85;;;;;;;;;;5052745;28;20032;-67
2022/08/29 07:47:08;;;;;;;12.65;7.43;;;;;;;;;;5054101;28;20029;-67
2022/08/29 07:49:34;;;;;;;10.27;6.75;;;;;;;;;;5054076;28;20498;-67
2022/08/29 07:52:00;;;;;;;8.20;7.32;;;;;;;;;;5053734;28;20087;-67
2022/08/29 07:54:27;;;;;;;9.00;8.07;;;;;;;;;;5053922;28;20021;-66
2022/08/29 07:56:53;;;;;;;10.25;7.72;;;;;;;;;;5053916;28;20021;-67
2022/08/29 07:59:20;;;;;;;10.95;7.97;;;;;;;;;;5053844;28;20070;-67
2022/08/29 08:01:46;;;;;;;10.45;7.57;;;;;;;;;;5053650;28;20025;-67
2022/08/29 08:04:12;;;;;;;9.00;7.15;;;;;;;;;;5053360;28;20536;-66
2022/08/29 08:06:40;;;;;;;9.32;7.85;;;;;;;;;;5054076;28;20538;-67
2022/08/29 08:09:06;;;;;;;11.75;7.88;;;;;;;;;;5053589;28;20025;-67
2022/08/29 08:11:32;;;;;;;8.82;7.88;;;;;;;;;;5053332;28;20073;-66
2022/08/29 08:13:59;;;;;;;10.27;7.88;;;;;;;;;;5054068;28;20025;-66
2022/08/29 08:16:26;;;;;;;10.75;9.35;;;;;;;;;;5053441;28;20040;-66
2022/08/29 08:18:52;;;;;;;10.13;7.82;;;;;;;;;;5053758;28;20021;-67
2022/08/29 08:21:18;;;;;;;12.63;9.07;;;;;;;;;;5051979;28;20518;-66
2022/08/29 08:23:45;;;;;;;12.35;8.45;;;;;;;;;;5053799;28;20021;-67
2022/08/29 08:26:11;;;;;;;9.73;8.73;;;;;;;;;;5053160;28;20025;-67
2022/08/29 08:28:39;;;;;;;13.73;8.55;;;;;;;;;;5052004;28;20036;-67
2022/08/29 08:31:06;;;;;;;14.15;8.50;;;;;;;;;;5053012;28;20071;-67
2022/08/29 08:33:32;;;;;;;9.32;8.23;;;;;;;;;;5053243;28;20021;-66
2022/08/29 08:35:58;;;;;;;9.80;8.32;;;;;;;;;;5084840;22;20040;-66
2022/08/29 08:38:24;;;;;;;11.90;8.52;;;;;;;;;;5093317;28;20017;-66
2022/08/29 08:40:55;;;;;;;13.57;9.23;;;;;;;;;;5092936;28;20397;-66
2022/08/29 08:43:26;;;;;;;10.15;8.90;;;;;;;;;;5093321;28;20028;-66
2022/08/29 08:45:53;;;;;;;11.65;8.85;;;;;;;;;;5093237;28;20028;-66
2022/08/29 08:48:22;;;;;;;13.95;8.90;;;;;;;;;;5093213;28;20096;-66
2022/08/29 08:50:55;;;;;;;10.77;8.05;;;;;;;;;;5092809;28;20050;-66
2022/08/29 08:53:21;;;;;;;10.18;9.07;;;;;;;;;;5093006;28;20016;-66
2022/08/29 08:56:00;;;;;;;11.45;8.40;;;;;;;;;;5092988;28;20081;-66
2022/08/29 08:58:41;;;;;;;10.05;8.10;;;;;;;;;;5093105;28;20302;-66
2022/08/29 09:01:13;;;;;;;11.57;8.40;;;;;;;;;;5091431;28;20105;-66
2022/08/29 09:03:51;;;;;;;13.10;9.05;;;;;;;;;;5092832;28;20154;-66
2022/08/29 09:06:30;;;;;;;12.82;9.23;;;;;;;;;;5091423;28;20131;-66
2022/08/29 09:09:15;;;;;;;12.63;9.27;;;;;;;;;;5091623;28;20024;-66
2022/08/29 09:11:42;;;;;;;11.60;8.88;;;;;;;;;;5092394;28;20039;-66
2022/08/29 09:14:19;;;;;;;10.13;8.15;;;;;;;;;;5092532;28;20023;-66
2022/08/29 09:16:48;;;;;;;12.45;10.02;;;;;;;;;;5091910;28;20020;-66
2022/08/29 09:19:15;;;;;;;9.98;8.98;;;;;;;;;;5092603;28;20016;-66
2022/08/29 09:21:52;;;;;;;10.52;8.45;;;;;;;;;;5092252;28;20028;-66
2022/08/29 09:24:24;;;;;;;14.80;9.30;;;;;;;;;;5091113;28;20033;-66
2022/08/29 09:26:50;;;;;;;11.52;9.02;;;;;;;;;;5092250;28;20059;-66
2022/08/29 09:29:19;;;;;;;9.45;8.25;;;;;;;;;;5092329;28;20020;-66
2022/08/29 09:31:46;;;;;;;12.35;9.75;;;;;;;;;;5092141;28;20032;-66
2022/08/29 09:34:14;;;;;;;11.20;8.73;;;;;;;;;;5092343;28;20505;-66
2022/08/29 09:36:43;;;;;;;11.02;8.50;;;;;;;;;;5090757;28;20114;-66
2022/08/29 09:39:18;;;;;;;10.55;7.80;;;;;;;;;;5092189;28;20031;-66
2022/08/29 09:41:47;;;;;;;10.93;7.40;;;;;;;;;;5091978;28;20028;-66
2022/08/29 09:44:17;;;;;;;10.25;7.82;;;;;;;;;;5092165;28;20031;-66
2022/08/29 09:46:44;;;;;;;8.15;6.55;;;;;;;;;;5092175;28;20028;-65
2022/08/29 09:49:13;;;;;;;9.35;7.22;;;;;;;;;;5092062;28;20020;-65
2022/08/29 09:51:41;;;;;;;12.30;6.22;;;;;;;;;;5091742;28;20024;-66
2022/08/29 09:54:13;;;;;;;10.43;7.43;;;;;;;;;;5092057;28;20021;-66
2022/08/29 09:56:47;;;;;;;13.68;7.20;;;;;;;;;;5090674;28;20110;-66
2022/08/29 09:59:21;;;;;;;9.27;6.97;;;;;;;;;;5092043;28;20043;-66
2022/08/29 10:01:48;;;;;;;10.23;7.05;;;;;;;;;;5091712;28;20067;-66
2022/08/29 10:04:34;;;;;;;9.30;6.88;;;;;;;;;;5090499;28;20027;-66
2022/08/29 10:07:08;;;;;;;10.05;6.68;;;;;;;;;;5091916;28;20020;-66
2022/08/29 10:09:34;;;;;;;11.73;8.20;;;;;;;;;;5091896;28;20024;-66
2022/08/29 10:12:07;;;;;;;8.70;7.03;;;;;;;;;;5091436;28;20497;-66
2022/08/29 10:14:34;;;;;;;8.93;5.70;;;;;;;;;;5090930;28;20074;-66
2022/08/29 10:19:47;;;;;;;14.23;6.65;;;;;;;;;;5089623;28;20035;-65
2022/08/29 10:22:26;;;;;;;8.43;6.60;;;;;;;;;;5075830;28;20024;-65
2022/08/29 10:24:53;;;;;;;10.38;7.63;;;;;;;;;;5091125;28;20031;-66
2022/08/29 10:27:39;;;;;;;6.93;6.22;;;;;;;;;;5072687;28;20500;-65
2022/08/29 10:30:05;;;;;;;9.75;6.13;;;;;;;;;;5075582;28;20027;-65
2022/08/29 10:33:03;;;;;;;9.23;6.50;;;;;;;;;;5091808;28;20115;-66
2022/08/29 10:35:40;;;;;;;8.75;6.65;;;;;;;;;;5079593;28;20063;-65
2022/08/29 10:38:06;;;;;;;9.10;7.05;;;;;;;;;;5095662;28;20020;-65
2022/08/29 10:40:47;;;;;;;7.65;6.82;;;;;;;;;;5094574;28;20028;-66
2022/08/29 10:43:23;;;;;;;11.02;7.50;;;;;;;;;;5095492;28;20102;-66
2022/08/29 10:45:55;;;;;;;7.68;6.93;;;;;;;;;;5093975;28;20394;-66
2022/08/29 10:48:37;;;;;;;8.88;6.65;;;;;;;;;;5090167;28;20084;-66
2022/08/29 10:51:12;;;;;;;9.23;6.00;;;;;;;;;;5093407;28;20024;-66
2022/08/29 10:53:40;;;;;;;7.43;6.10;;;;;;;;;;5093355;28;20020;-66
2022/08/29 10:56:09;;;;;;;8.13;5.05;;;;;;;;;;5094732;28;20047;-66
2022/08/29 10:58:39;;;;;;;8.82;5.10;;;;;;;;;;5092751;28;20032;-66
2022/08/29 11:01:14;;;;;;;7.85;5.50;;;;;;;;;;5093793;28;20024;-66
2022/08/29 11:03:46;;;;;;;5.97;5.38;;;;;;;;;;5092906;28;20521;-66
2022/08/29 11:06:17;;;;;;;10.15;5.82;;;;;;;;;;5092137;28;20024;-66
2022/08/29 11:08:50;;;;;;;8.30;5.50;;;;;;;;;;5093062;28;20028;-66
2022/08/29 11:11:18;;;;;;;7.45;5.20;;;27.80;87.90;;;;;;5090798;28;20035;-65
2022/08/29 11:13:51;;;;;;;6.65;5.68;;;29.10;58.60;;;;;;5094540;28;20032;-66
2022/08/29 11:16:34;;;;;;;7.90;5.70;;;29.00;58.30;;;;;;5094882;28;20069;-66
2022/08/29 11:19:09;;;;;;;8.57;6.05;;;29.10;58.60;;;;;;5093654;28;20028;-66
2022/08/29 11:21:42;;;;;;;7.65;6.07;;;;;;;;;;5092493;28;20557;-65
2022/08/29 11:24:10;;;;;;;6.68;5.45;;;29.10;59.30;;;;;;5094191;28;20036;-66
2022/08/29 11:26:42;;;;;;;6.28;5.07;;;;;;;;;;5094304;28;20551;-66
2022/08/29 11:29:15;;;;;;;7.65;4.78;;;;;;;;;;5094640;28;20406;-65
2022/08/29 11:32:00;;;;;;;6.60;4.80;;;;;;;;;;5092936;28;20032;-66
2022/08/29 11:34:26;;;;;;;7.88;4.88;;;;;;;;;;5094008;28;20035;-66
2022/08/29 11:37:12;;;;;;;8.38;5.72;;;29.70;58.00;;;;;;5093298;28;20031;-66
2022/08/29 11:39:38;;;;;;;11.10;5.18;;;;;;;;;;5060543;28;20036;-66
2022/08/29 11:42:09;;;;;;;8.52;5.18;;;29.80;57.80;;;;;;5093941;28;20024;-66
2022/08/29 11:44:44;;;;;;;7.15;5.70;;;29.60;80.80;;;;;;5094175;28;20089;-66
2022/08/29 11:47:35;;;;;;;9.98;6.30;;;29.80;56.30;;;;;;5094495;28;20028;-66
2022/08/29 11:50:21;;;;;;;7.30;6.60;;;;;;;;;;5094359;28;20059;-66
2022/08/29 11:52:52;;;;;;;7.45;5.22;;;29.70;56.30;;;;;;5093575;28;20035;-66
2022/08/29 11:55:32;;;;;;;8.00;5.57;;;29.60;56.60;;;;;;5093733;28;20071;-66
2022/08/29 11:58:18;;;;;;;8.32;5.10;;;29.60;57.10;;;;;;5094233;28;20027;-66
2022/08/29 12:00:43;;;;;;;7.22;5.60;;;29.80;57.40;;;;;;5082269;28;20028;-65
2022/08/29 12:03:27;;;;;;;8.40;6.30;;;29.80;56.40;;;;;;5093475;28;20394;-65
2022/08/29 12:06:01;;;;;;;5.78;5.15;;;29.90;56.30;;;;;;5090840;28;20081;-65
2022/08/29 12:08:46;;;;;;;7.13;5.55;;;29.90;56.10;;;;;;5091518;28;20111;-66
2022/08/29 12:11:12;;;;;;;7.18;4.38;;;30.00;56.80;;;;;;5071962;28;20036;-66
2022/08/29 12:13:47;;;;;;;4.73;3.67;;;30.00;55.10;;;;;;5079841;28;20039;-66
2022/08/29 12:16:14;;;;;;;5.45;4.25;;;;;;;;;;5090956;28;20024;-66
2022/08/29 12:18:48;;;;;;;4.45;4.05;;;30.30;56.60;;;;;;5091764;28;20034;-66
2022/08/29 12:21:43;;;;;;;6.63;4.00;;;30.40;55.60;;;;;;5093478;28;20028;-66
2022/08/29 12:24:41;;;;;;;3.95;3.45;;;30.60;55.40;;;;;;5092419;28;20086;-66
2022/08/29 12:27:44;;;;;;;4.22;3.83;;;30.60;54.50;;;;;;5048711;28;20032;-66
2022/08/29 12:30:13;;;;;;;5.95;3.92;;;30.70;55.90;;;;;;5093378;28;20512;-66
2022/08/29 12:32:53;;;;;;;5.72;3.95;;;30.80;55.60;;;;;;5093264;28;20020;-66
2022/08/29 12:35:25;;;;;;;4.68;3.80;;;30.90;54.00;;;;;;5093354;28;20111;-66
2022/08/29 12:38:12;;;;;;;6.57;4.13;;;;;;;;;;5093382;28;20016;-66
2022/08/29 12:41:08;;;;;;;7.05;4.50;;;31.00;54.40;;;;;;5091738;28;20621;-66
2022/08/29 12:43:41;;;;;;;4.53;3.75;;;30.90;52.50;;;;;;5093274;28;20071;-66
2022/08/29 12:46:32;;;;;;;4.03;3.63;;;30.90;53.30;;;;;;5093621;28;20024;-66
2022/08/29 12:49:22;;;;;;;5.53;4.40;;;30.90;53.10;;;;;;5093137;28;20027;-66
2022/08/29 12:51:55;;;;;;;6.50;3.45;;;31.00;53.10;;;;;;5091869;28;20058;-65
2022/08/29 12:54:40;;;;;;;3.90;3.50;;;31.00;52.00;;;;;;5093044;28;20016;-66
2022/08/29 12:57:39;;;;;;;6.65;3.38;;;31.30;53.50;;;;;;5092927;28;20016;-67
2022/08/29 13:00:11;;;;;;;4.82;3.65;;;;;;;;;;5079513;28;20053;-66
2022/08/29 13:02:37;;;;;;;4.55;3.50;;;;;;;;;;5092834;28;20400;-66
2022/08/29 13:05:16;;;;;;;7.53;3.33;;;31.30;53.40;;;;;;5092988;28;20367;-66
2022/08/29 13:07:53;;;;;;;4.65;3.15;;;31.90;49.80;;;;;;5092844;28;20035;-66
2022/08/29 13:10:19;;;;;;;3.67;3.25;;;;;;;;;;5092795;28;20024;-66
2022/08/29 13:12:46;;;;;;;4.45;3.10;;;;;;;;;;5092549;28;20024;-66
2022/08/29 13:15:19;;;;;;;6.30;2.90;;;32.30;49.00;;;;;;5092639;28;20022;-66
2022/08/29 13:17:49;;;;;;;3.80;3.50;;;32.80;47.60;;;;;;5093156;28;20020;-66
2022/08/29 13:20:33;;;;;;;3.05;2.70;;;;;;;;;;5092528;28;20085;-66
2022/08/29 13:23:10;;;;;;;4.70;2.65;;;32.90;45.70;;;;;;5092536;28;20035;-65
2022/08/29 13:25:54;;;;;;;9.02;3.00;;;33.90;44.00;;;;;;5092446;28;20482;-66
2022/08/29 13:28:49;;;;;;;7.05;3.33;;;35.20;43.40;;;;;;5092340;28;20024;-66
2022/08/29 13:31:16;;;;;;;2.75;2.45;;;;;;;;;;5086546;28;20066;-66
2022/08/29 13:33:45;;;;;;;3.58;2.50;;;;;;;;;;5092378;28;20024;-67
2022/08/29 13:36:26;;;;;;;5.63;2.35;;;;;;;;;;5092107;28;20055;-67
2022/08/29 13:39:14;;;;;;;5.78;2.67;;;36.40;39.70;;;;;;5092130;28;20031;-65
2022/08/29 13:41:45;;;;;;;3.55;2.80;;;39.40;36.60;;;;;;5090679;28;20078;-65
2022/08/29 13:44:22;;;;;;;5.05;2.45;;;40.60;35.60;;;;;;5092320;28;20028;-65
2022/08/29 13:46:51;;;;;;;4.18;2.92;;;41.30;34.10;;;;;;5092326;28;20032;-65
2022/08/29 13:49:25;;;;;;;2.50;2.30;;;41.60;34.50;;;;;;5092061;28;20034;-65
2022/08/29 13:51:51;;;;;;;4.25;2.20;;;;;;;;;;5090545;28;20028;-61
2022/08/29 13:54:18;;;;;;;4.00;2.30;;;;;;;;;;5091916;28;20024;-62
2022/08/29 13:56:46;;;;;;;3.30;2.60;;;;;;;;;;5091877;28;20064;-61
2022/08/29 13:59:13;;;;;;;3.45;2.70;;;;;;;;;;5091913;28;20024;-61
2022/08/29 14:01:39;;;;;;;4.05;2.35;;;;;;;;;;5089984;28;20028;-61
2022/08/29 14:04:05;;;;;;;7.22;3.10;;;;;;;;;;5090591;28;20028;-62
2022/08/29 14:06:31;;;;;;;2.88;2.50;;;;;;;;;;5090491;28;20028;-62
2022/08/29 14:08:58;;;;;;;6.40;2.72;;;;;;;;;;5091825;28;20103;-62
2022/08/29 14:11:24;;;;;;;4.35;2.55;;;;;;;;;;5091500;28;20024;-62
2022/08/29 14:13:50;;;;;;;5.28;2.53;;;;;;;;;;5091751;28;20016;-62
2022/08/29 14:16:17;;;;;;;3.38;2.72;;;;;;;;;;5091548;28;20020;-62
2022/08/29 14:18:43;;;;;;;3.97;2.70;;;;;;;;;;5091759;28;20435;-62
2022/08/29 14:21:09;;;;;;;6.18;2.80;;;;;;;;;;5091524;28;20039;-64
2022/08/29 14:23:36;;;;;;;3.15;2.45;;;;;;;;;;5091527;28;20048;-64
2022/08/29 14:26:02;;;;;;;2.45;2.25;;;;;;;;;;5091994;28;20036;-64
2022/08/29 14:28:28;;;;;;;3.53;2.55;;;;;;;;;;5091506;28;20039;-64